Fort Snelling, MN (55111)

4:42 AM CDT on June 30, 2015 (GMT -0500)
Highview Park Area | | Change Station
CLOSE
Current Station
Personal Weather Station
Location: Eagan, MN
Elevation: 906 ft
Nearby Weather Stations

Elev 906 ft 44.85 °N, 93.17 °W | Updated 2 minutes ago

Clear
Clear
59.5 °F
Feels Like 59.5 °F
N
0.7
Wind Variable Wind from North
Gusts 2.2 mph

Today
High -- | Low -- °F
--% Chance of Precip.
Yesterday
High -- | Low -- °F
Precip. -- in
5:29 AM 9:02 PM
Waxing Gibbous, 96% visible
Pressure 29.84 in
Visibility 6.0 miles
Clouds Clear
Dew Point 44 °F
Humidity 57%
Rainfall 0.00 in
Snow Depth Not available.
UV 0 out of 12
Pollen 4.90 out of 12
Air Quality Not available.
Flu Activity Sporadic
METAR KMSP 300853Z 35006KT 6SM BR CLR 18/17 A2985 RMK AO2 SLP104 T01780167 51004

More Conditions Fewer Conditions

Pressure 29.84 in
Visibility 6.0 miles
Clouds Clear
Dew Point 44 °F
Humidity 57%
Rainfall 0.00 in
Snow Depth Not available.
UV 0 out of 12
Pollen 4.90 out of 12
Air Quality Not available.
Flu Activity Sporadic
METAR KMSP 300853Z 35006KT 6SM BR CLR 18/17 A2985 RMK AO2 SLP104 T01780167 51004

More Conditions Fewer Conditions

10-Day Weather Forecast

×

Almanac

Astronomy

Jun. 30, 2015 Rise Set
Actual Time
Civil Twilight
Nautical Twilight
Astronomical Twilight
Moon
Length of Visible Light
Length of Day
Tomorrow will be .
, % of the Moon is Illuminated

Today's Extremes

State Highs State Lows

Community

WunderPhotos

Upload Photos

1,833,983 photos uploaded!

WunderBlogs® & News

Nearby

Air Quality

  Air Quality AQ Index Pollutant
Not available.

Snow Depth

Station Depth Elevation

Earthquake Activity

City Distance Mag. Time & Date
Minimum magnitude displayed is 2.5.

Coastal Water Temperatures

Place Temperature

Stations

Nearby Weather Stations

Station Location Temp. Windchill Dew Point Humidity Wind Precip. Elev Updated Type